sensor_id;sensor_type;location;lat;lon;timestamp;P1;durP1;ratioP1;P2;durP2;ratioP2
68144;SDS011;55400;51.824;-0.196;2022-12-10T00:01:20;13.88;;;7.15;;
68144;SDS011;55400;51.824;-0.196;2022-12-10T00:03:46;17.55;;;7.22;;
68144;SDS011;55400;51.824;-0.196;2022-12-10T00:06:16;14.05;;;6.68;;
68144;SDS011;55400;51.824;-0.196;2022-12-10T00:08:45;19.77;;;6.85;;
68144;SDS011;55400;51.824;-0.196;2022-12-10T00:11:11;14.05;;;6.95;;
68144;SDS011;55400;51.824;-0.196;2022-12-10T00:13:38;13.23;;;6.65;;
68144;SDS011;55400;51.824;-0.196;2022-12-10T00:16:08;10.60;;;5.95;;
68144;SDS011;55400;51.824;-0.196;2022-12-10T00:18:35;13.50;;;6.35;;
68144;SDS011;55400;51.824;-0.196;2022-12-10T00:21:06;20.90;;;7.10;;
68144;SDS011;55400;51.824;-0.196;2022-12-10T00:23:33;15.60;;;6.97;;
68144;SDS011;55400;51.824;-0.196;2022-12-10T00:26:03;15.00;;;6.75;;
68144;SDS011;55400;51.824;-0.196;2022-12-10T00:28:30;16.00;;;6.90;;
68144;SDS011;55400;51.824;-0.196;2022-12-10T00:31:01;15.18;;;7.22;;
68144;SDS011;55400;51.824;-0.196;2022-12-10T00:33:33;16.77;;;7.10;;
68144;SDS011;55400;51.824;-0.196;2022-12-10T00:36:09;18.52;;;7.63;;
68144;SDS011;55400;51.824;-0.196;2022-12-10T00:38:37;13.90;;;6.85;;
68144;SDS011;55400;51.824;-0.196;2022-12-10T00:41:03;18.15;;;6.05;;
68144;SDS011;55400;51.824;-0.196;2022-12-10T00:43:29;18.10;;;6.50;;
68144;SDS011;55400;51.824;-0.196;2022-12-10T00:45:55;12.57;;;6.97;;
68144;SDS011;55400;51.824;-0.196;2022-12-10T00:48:25;13.52;;;6.53;;
68144;SDS011;55400;51.824;-0.196;2022-12-10T00:50:55;14.10;;;6.88;;
68144;SDS011;55400;51.824;-0.196;2022-12-10T00:53:35;17.65;;;7.57;;
68144;SDS011;55400;51.824;-0.196;2022-12-10T00:56:02;14.45;;;7.68;;
68144;SDS011;55400;51.824;-0.196;2022-12-10T00:58:29;12.82;;;6.93;;
68144;SDS011;55400;51.824;-0.196;2022-12-10T01:01:19;15.68;;;6.82;;
68144;SDS011;55400;51.824;-0.196;2022-12-10T01:03:52;11.43;;;6.55;;
68144;SDS011;55400;51.824;-0.196;2022-12-10T01:06:24;19.40;;;6.90;;
68144;SDS011;55400;51.824;-0.196;2022-12-10T01:08:57;11.07;;;6.20;;
68144;SDS011;55400;51.824;-0.196;2022-12-10T01:11:29;12.55;;;6.82;;
68144;SDS011;55400;51.824;-0.196;2022-12-10T01:13:57;13.88;;;7.20;;
68144;SDS011;55400;51.824;-0.196;2022-12-10T01:16:23;10.45;;;6.15;;
68144;SDS011;55400;51.824;-0.196;2022-12-10T01:18:49;17.48;;;6.78;;
68144;SDS011;55400;51.824;-0.196;2022-12-10T01:21:20;18.70;;;7.63;;
68144;SDS011;55400;51.824;-0.196;2022-12-10T01:23:46;14.48;;;6.60;;
68144;SDS011;55400;51.824;-0.196;2022-12-10T01:26:15;19.05;;;7.07;;
68144;SDS011;55400;51.824;-0.196;2022-12-10T01:31:13;12.63;;;6.88;;
68144;SDS011;55400;51.824;-0.196;2022-12-10T01:33:41;11.82;;;6.15;;
68144;SDS011;55400;51.824;-0.196;2022-12-10T01:36:08;18.15;;;7.53;;
68144;SDS011;55400;51.824;-0.196;2022-12-10T01:38:37;12.07;;;7.20;;
68144;SDS011;55400;51.824;-0.196;2022-12-10T01:41:03;15.50;;;8.02;;
68144;SDS011;55400;51.824;-0.196;2022-12-10T01:43:29;12.38;;;7.10;;
68144;SDS011;55400;51.824;-0.196;2022-12-10T01:46:18;14.90;;;7.10;;
68144;SDS011;55400;51.824;-0.196;2022-12-10T01:48:46;17.70;;;7.83;;
68144;SDS011;55400;51.824;-0.196;2022-12-10T01:51:12;12.40;;;6.88;;
68144;SDS011;55400;51.824;-0.196;2022-12-10T01:53:39;13.82;;;6.97;;
68144;SDS011;55400;51.824;-0.196;2022-12-10T01:56:35;14.82;;;6.90;;
68144;SDS011;55400;51.824;-0.196;2022-12-10T01:59:02;15.73;;;7.03;;
68144;SDS011;55400;51.824;-0.196;2022-12-10T02:01:51;13.15;;;6.65;;
68144;SDS011;55400;51.824;-0.196;2022-12-10T02:04:37;15.45;;;6.72;;
68144;SDS011;55400;51.824;-0.196;2022-12-10T02:17:26;18.40;;;8.35;;
68144;SDS011;55400;51.824;-0.196;2022-12-10T02:23:01;15.45;;;7.43;;
68144;SDS011;55400;51.824;-0.196;2022-12-10T02:28:13;12.90;;;6.25;;
68144;SDS011;55400;51.824;-0.196;2022-12-10T02:31:03;17.52;;;7.05;;
68144;SDS011;55400;51.824;-0.196;2022-12-10T02:33:29;14.57;;;7.35;;
68144;SDS011;55400;51.824;-0.196;2022-12-10T02:35:57;16.10;;;6.78;;
68144;SDS011;55400;51.824;-0.196;2022-12-10T02:38:27;16.08;;;7.93;;
68144;SDS011;55400;51.824;-0.196;2022-12-10T02:41:00;12.73;;;7.40;;
68144;SDS011;55400;51.824;-0.196;2022-12-10T02:43:30;12.75;;;7.53;;
68144;SDS011;55400;51.824;-0.196;2022-12-10T02:45:58;11.00;;;6.72;;
68144;SDS011;55400;51.824;-0.196;2022-12-10T02:48:33;19.00;;;6.97;;
68144;SDS011;55400;51.824;-0.196;2022-12-10T02:51:00;12.07;;;6.63;;
68144;SDS011;55400;51.824;-0.196;2022-12-10T02:53:25;14.75;;;7.57;;
68144;SDS011;55400;51.824;-0.196;2022-12-10T03:01:28;12.52;;;6.55;;
68144;SDS011;55400;51.824;-0.196;2022-12-10T03:04:01;13.60;;;7.28;;
68144;SDS011;55400;51.824;-0.196;2022-12-10T03:06:42;14.75;;;7.10;;
68144;SDS011;55400;51.824;-0.196;2022-12-10T03:11:49;16.08;;;7.72;;
68144;SDS011;55400;51.824;-0.196;2022-12-10T03:14:30;12.17;;;6.40;;
68144;SDS011;55400;51.824;-0.196;2022-12-10T03:17:01;15.95;;;7.10;;
68144;SDS011;55400;51.824;-0.196;2022-12-10T03:19:40;14.57;;;7.32;;
68144;SDS011;55400;51.824;-0.196;2022-12-10T03:22:10;12.35;;;7.57;;
68144;SDS011;55400;51.824;-0.196;2022-12-10T03:24:38;12.77;;;6.82;;
68144;SDS011;55400;51.824;-0.196;2022-12-10T03:27:07;10.63;;;6.32;;
68144;SDS011;55400;51.824;-0.196;2022-12-10T03:29:37;13.68;;;7.85;;
68144;SDS011;55400;51.824;-0.196;2022-12-10T03:32:18;15.93;;;7.25;;
68144;SDS011;55400;51.824;-0.196;2022-12-10T03:34:46;13.70;;;7.13;;
68144;SDS011;55400;51.824;-0.196;2022-12-10T03:37:14;12.13;;;7.03;;
68144;SDS011;55400;51.824;-0.196;2022-12-10T03:39:40;17.55;;;7.60;;
68144;SDS011;55400;51.824;-0.196;2022-12-10T03:42:07;17.13;;;7.60;;
68144;SDS011;55400;51.824;-0.196;2022-12-10T03:44:33;11.38;;;7.07;;
68144;SDS011;55400;51.824;-0.196;2022-12-10T03:49:27;19.30;;;7.00;;
68144;SDS011;55400;51.824;-0.196;2022-12-10T03:51:54;9.77;;;6.63;;
68144;SDS011;55400;51.824;-0.196;2022-12-10T03:54:20;13.25;;;6.75;;
68144;SDS011;55400;51.824;-0.196;2022-12-10T03:56:46;14.57;;;7.25;;
68144;SDS011;55400;51.824;-0.196;2022-12-10T03:59:14;12.18;;;7.13;;
68144;SDS011;55400;51.824;-0.196;2022-12-10T04:01:40;12.68;;;7.22;;
68144;SDS011;55400;51.824;-0.196;2022-12-10T04:04:06;17.05;;;7.95;;
68144;SDS011;55400;51.824;-0.196;2022-12-10T04:06:32;15.70;;;6.90;;
68144;SDS011;55400;51.824;-0.196;2022-12-10T04:09:01;19.08;;;7.13;;
68144;SDS011;55400;51.824;-0.196;2022-12-10T04:11:26;12.30;;;8.13;;
68144;SDS011;55400;51.824;-0.196;2022-12-10T04:13:52;14.80;;;7.18;;
68144;SDS011;55400;51.824;-0.196;2022-12-10T04:16:36;11.23;;;6.30;;
68144;SDS011;55400;51.824;-0.196;2022-12-10T04:19:06;11.25;;;6.78;;
68144;SDS011;55400;51.824;-0.196;2022-12-10T04:21:34;22.50;;;7.53;;
68144;SDS011;55400;51.824;-0.196;2022-12-10T04:24:20;17.23;;;7.70;;
68144;SDS011;55400;51.824;-0.196;2022-12-10T04:27:08;16.93;;;7.53;;
68144;SDS011;55400;51.824;-0.196;2022-12-10T04:29:38;19.50;;;6.95;;
68144;SDS011;55400;51.824;-0.196;2022-12-10T04:32:04;11.20;;;7.07;;
68144;SDS011;55400;51.824;-0.196;2022-12-10T04:34:30;12.52;;;7.18;;
68144;SDS011;55400;51.824;-0.196;2022-12-10T04:36:57;16.90;;;7.50;;
68144;SDS011;55400;51.824;-0.196;2022-12-10T04:39:23;13.77;;;6.55;;
68144;SDS011;55400;51.824;-0.196;2022-12-10T04:41:49;16.73;;;7.38;;
68144;SDS011;55400;51.824;-0.196;2022-12-10T04:44:15;16.73;;;7.38;;
68144;SDS011;55400;51.824;-0.196;2022-12-10T04:46:41;14.15;;;7.20;;
68144;SDS011;55400;51.824;-0.196;2022-12-10T04:49:16;18.17;;;7.50;;
68144;SDS011;55400;51.824;-0.196;2022-12-10T04:51:42;13.30;;;6.63;;
68144;SDS011;55400;51.824;-0.196;2022-12-10T04:54:09;16.10;;;7.55;;
68144;SDS011;55400;51.824;-0.196;2022-12-10T04:56:34;15.00;;;8.25;;
68144;SDS011;55400;51.824;-0.196;2022-12-10T04:59:01;19.33;;;8.45;;
68144;SDS011;55400;51.824;-0.196;2022-12-10T05:01:28;16.88;;;8.65;;
68144;SDS011;55400;51.824;-0.196;2022-12-10T05:03:54;13.88;;;7.30;;
68144;SDS011;55400;51.824;-0.196;2022-12-10T05:06:23;19.45;;;7.53;;
68144;SDS011;55400;51.824;-0.196;2022-12-10T05:08:48;16.70;;;8.50;;
68144;SDS011;55400;51.824;-0.196;2022-12-10T05:11:16;17.95;;;7.90;;
68144;SDS011;55400;51.824;-0.196;2022-12-10T05:13:43;16.75;;;7.75;;
68144;SDS011;55400;51.824;-0.196;2022-12-10T05:16:11;12.35;;;7.55;;
68144;SDS011;55400;51.824;-0.196;2022-12-10T05:18:39;12.68;;;7.65;;
68144;SDS011;55400;51.824;-0.196;2022-12-10T05:21:05;10.27;;;7.07;;
68144;SDS011;55400;51.824;-0.196;2022-12-10T05:23:35;12.80;;;7.38;;
68144;SDS011;55400;51.824;-0.196;2022-12-10T05:26:09;13.45;;;6.72;;
68144;SDS011;55400;51.824;-0.196;2022-12-10T05:31:18;12.27;;;6.63;;
68144;SDS011;55400;51.824;-0.196;2022-12-10T05:33:54;17.40;;;6.95;;
68144;SDS011;55400;51.824;-0.196;2022-12-10T05:36:23;13.32;;;6.75;;
68144;SDS011;55400;51.824;-0.196;2022-12-10T05:38:53;15.45;;;7.05;;
68144;SDS011;55400;51.824;-0.196;2022-12-10T05:41:20;11.48;;;6.00;;
68144;SDS011;55400;51.824;-0.196;2022-12-10T05:43:49;11.65;;;6.95;;
68144;SDS011;55400;51.824;-0.196;2022-12-10T05:46:16;13.63;;;7.75;;
68144;SDS011;55400;51.824;-0.196;2022-12-10T05:48:49;12.13;;;6.55;;
68144;SDS011;55400;51.824;-0.196;2022-12-10T05:51:16;15.95;;;7.38;;
68144;SDS011;55400;51.824;-0.196;2022-12-10T05:53:45;16.00;;;6.97;;
68144;SDS011;55400;51.824;-0.196;2022-12-10T05:56:12;11.65;;;6.28;;
68144;SDS011;55400;51.824;-0.196;2022-12-10T05:58:41;13.48;;;7.25;;
68144;SDS011;55400;51.824;-0.196;2022-12-10T06:01:08;15.95;;;7.80;;
68144;SDS011;55400;51.824;-0.196;2022-12-10T06:03:36;17.73;;;7.28;;
68144;SDS011;55400;51.824;-0.196;2022-12-10T06:06:02;11.77;;;6.75;;
68144;SDS011;55400;51.824;-0.196;2022-12-10T06:08:29;13.70;;;7.07;;
68144;SDS011;55400;51.824;-0.196;2022-12-10T06:10:54;14.90;;;7.38;;
68144;SDS011;55400;51.824;-0.196;2022-12-10T06:13:21;16.70;;;7.80;;
68144;SDS011;55400;51.824;-0.196;2022-12-10T06:15:46;16.58;;;8.00;;
68144;SDS011;55400;51.824;-0.196;2022-12-10T06:18:12;13.98;;;6.95;;
68144;SDS011;55400;51.824;-0.196;2022-12-10T06:20:38;17.10;;;8.50;;
68144;SDS011;55400;51.824;-0.196;2022-12-10T06:23:04;16.30;;;8.10;;
68144;SDS011;55400;51.824;-0.196;2022-12-10T06:25:29;13.13;;;7.80;;
68144;SDS011;55400;51.824;-0.196;2022-12-10T06:27:55;18.20;;;8.00;;
68144;SDS011;55400;51.824;-0.196;2022-12-10T06:30:20;20.95;;;8.98;;
68144;SDS011;55400;51.824;-0.196;2022-12-10T06:32:46;17.85;;;7.05;;
68144;SDS011;55400;51.824;-0.196;2022-12-10T06:35:11;15.93;;;8.23;;
68144;SDS011;55400;51.824;-0.196;2022-12-10T06:37:37;11.10;;;6.93;;
68144;SDS011;55400;51.824;-0.196;2022-12-10T06:40:03;14.55;;;7.93;;
68144;SDS011;55400;51.824;-0.196;2022-12-10T06:42:29;16.30;;;8.18;;
68144;SDS011;55400;51.824;-0.196;2022-12-10T06:44:55;13.63;;;7.53;;
68144;SDS011;55400;51.824;-0.196;2022-12-10T06:47:20;13.55;;;7.78;;
68144;SDS011;55400;51.824;-0.196;2022-12-10T06:49:46;15.85;;;7.30;;
68144;SDS011;55400;51.824;-0.196;2022-12-10T06:52:11;11.88;;;6.88;;
68144;SDS011;55400;51.824;-0.196;2022-12-10T06:54:37;13.52;;;7.07;;
68144;SDS011;55400;51.824;-0.196;2022-12-10T06:57:02;13.05;;;7.03;;
68144;SDS011;55400;51.824;-0.196;2022-12-10T06:59:28;11.30;;;6.45;;
68144;SDS011;55400;51.824;-0.196;2022-12-10T07:01:53;13.38;;;7.40;;
68144;SDS011;55400;51.824;-0.196;2022-12-10T07:04:19;13.05;;;7.13;;
68144;SDS011;55400;51.824;-0.196;2022-12-10T07:06:44;14.85;;;7.60;;
68144;SDS011;55400;51.824;-0.196;2022-12-10T07:11:38;16.30;;;8.32;;
68144;SDS011;55400;51.824;-0.196;2022-12-10T07:14:04;14.27;;;7.38;;
68144;SDS011;55400;51.824;-0.196;2022-12-10T07:16:31;15.00;;;7.57;;
68144;SDS011;55400;51.824;-0.196;2022-12-10T07:18:59;9.77;;;6.45;;
68144;SDS011;55400;51.824;-0.196;2022-12-10T07:23:53;12.88;;;6.95;;
68144;SDS011;55400;51.824;-0.196;2022-12-10T07:26:23;14.98;;;7.88;;
68144;SDS011;55400;51.824;-0.196;2022-12-10T07:28:52;23.05;;;7.97;;
68144;SDS011;55400;51.824;-0.196;2022-12-10T07:31:18;15.05;;;8.25;;
68144;SDS011;55400;51.824;-0.196;2022-12-10T07:33:43;20.10;;;8.48;;
68144;SDS011;55400;51.824;-0.196;2022-12-10T07:36:10;19.50;;;9.38;;
68144;SDS011;55400;51.824;-0.196;2022-12-10T07:38:37;18.35;;;7.78;;
68144;SDS011;55400;51.824;-0.196;2022-12-10T07:41:07;18.83;;;9.25;;
68144;SDS011;55400;51.824;-0.196;2022-12-10T07:43:35;15.93;;;8.20;;
68144;SDS011;55400;51.824;-0.196;2022-12-10T07:46:09;14.47;;;7.63;;
68144;SDS011;55400;51.824;-0.196;2022-12-10T07:48:54;17.00;;;8.55;;
68144;SDS011;55400;51.824;-0.196;2022-12-10T07:51:20;19.45;;;8.32;;
68144;SDS011;55400;51.824;-0.196;2022-12-10T07:53:50;11.68;;;7.47;;
68144;SDS011;55400;51.824;-0.196;2022-12-10T07:56:17;10.80;;;7.88;;
68144;SDS011;55400;51.824;-0.196;2022-12-10T07:58:43;17.70;;;8.00;;
68144;SDS011;55400;51.824;-0.196;2022-12-10T08:01:15;14.70;;;7.97;;
68144;SDS011;55400;51.824;-0.196;2022-12-10T08:04:02;17.58;;;7.70;;
68144;SDS011;55400;51.824;-0.196;2022-12-10T08:06:31;17.77;;;7.88;;
68144;SDS011;55400;51.824;-0.196;2022-12-10T08:08:59;13.98;;;7.85;;
68144;SDS011;55400;51.824;-0.196;2022-12-10T08:11:31;14.85;;;7.95;;
68144;SDS011;55400;51.824;-0.196;2022-12-10T08:13:59;17.45;;;7.78;;
68144;SDS011;55400;51.824;-0.196;2022-12-10T08:16:26;16.20;;;8.50;;
68144;SDS011;55400;51.824;-0.196;2022-12-10T08:18:54;16.15;;;7.55;;
68144;SDS011;55400;51.824;-0.196;2022-12-10T08:21:22;14.47;;;7.73;;
68144;SDS011;55400;51.824;-0.196;2022-12-10T08:23:53;11.95;;;7.07;;
68144;SDS011;55400;51.824;-0.196;2022-12-10T08:26:20;13.18;;;7.63;;
68144;SDS011;55400;51.824;-0.196;2022-12-10T08:28:48;11.93;;;7.53;;
68144;SDS011;55400;51.824;-0.196;2022-12-10T08:31:15;15.75;;;8.88;;
68144;SDS011;55400;51.824;-0.196;2022-12-10T08:33:42;17.70;;;8.98;;
68144;SDS011;55400;51.824;-0.196;2022-12-10T08:36:08;14.82;;;8.10;;
68144;SDS011;55400;51.824;-0.196;2022-12-10T08:38:35;10.32;;;7.25;;
68144;SDS011;55400;51.824;-0.196;2022-12-10T08:41:08;19.70;;;8.85;;
68144;SDS011;55400;51.824;-0.196;2022-12-10T08:43:44;20.67;;;8.88;;
68144;SDS011;55400;51.824;-0.196;2022-12-10T08:46:13;19.27;;;9.65;;
68144;SDS011;55400;51.824;-0.196;2022-12-10T08:48:40;18.65;;;10.27;;
68144;SDS011;55400;51.824;-0.196;2022-12-10T08:51:06;18.88;;;9.40;;
68144;SDS011;55400;51.824;-0.196;2022-12-10T08:53:33;25.75;;;9.55;;
68144;SDS011;55400;51.824;-0.196;2022-12-10T08:56:02;18.50;;;8.70;;
68144;SDS011;55400;51.824;-0.196;2022-12-10T08:58:28;17.65;;;8.57;;
68144;SDS011;55400;51.824;-0.196;2022-12-10T09:00:56;26.45;;;9.38;;
68144;SDS011;55400;51.824;-0.196;2022-12-10T09:06:27;13.90;;;7.03;;
68144;SDS011;55400;51.824;-0.196;2022-12-10T09:08:53;22.83;;;8.32;;
68144;SDS011;55400;51.824;-0.196;2022-12-10T11:42:03;13.82;;;8.13;;
68144;SDS011;55400;51.824;-0.196;2022-12-10T12:01:42;5.68;;;4.68;;
68144;SDS011;55400;51.824;-0.196;2022-12-10T12:04:30;8.52;;;5.88;;
68144;SDS011;55400;51.824;-0.196;2022-12-10T12:21:16;6.63;;;5.18;;
68144;SDS011;55400;51.824;-0.196;2022-12-10T12:24:02;8.38;;;5.53;;
68144;SDS011;55400;51.824;-0.196;2022-12-10T12:27:00;6.18;;;4.53;;
68144;SDS011;55400;51.824;-0.196;2022-12-10T12:35:17;5.35;;;3.70;;
68144;SDS011;55400;51.824;-0.196;2022-12-10T12:41:05;6.55;;;4.15;;
68144;SDS011;55400;51.824;-0.196;2022-12-10T12:44:36;3.63;;;3.00;;
68144;SDS011;55400;51.824;-0.196;2022-12-10T12:46:58;5.15;;;3.95;;
68144;SDS011;55400;51.824;-0.196;2022-12-10T12:49:56;4.13;;;3.50;;
68144;SDS011;55400;51.824;-0.196;2022-12-10T12:52:43;3.45;;;3.00;;
68144;SDS011;55400;51.824;-0.196;2022-12-10T12:58:29;4.10;;;3.30;;
68144;SDS011;55400;51.824;-0.196;2022-12-10T13:04:04;4.00;;;2.72;;
